Latest Weather Observations for Wilcannia Airport

IDN60801

Issued at 7:42 pm EST Wednesday 19 September 2018 (issued every 10 minutes, with the page automatically refreshed every 10 minutes)

About weather observations | Map of weather stations | Latest weather observations for NSW | Other Formats
Station Details ID: 046012 Name: WILCANNIA AERODROME AWS Lat: -31.52 Lon: 143.38 Height: 94.3 m
Data from the previous 72 hours. | See also: Recent months at Wilcannia Airport
Date/Time
EST
Temp
°C
App
Temp
°C
Dew
Point
°C
Rel
Hum
%
Delta-T
°C
Wind Press
QNH
hPa
Press
MSL
hPa
Rain since
9am
mm
Dir  Spd
km/h
Gust
km/h
Spd
kts
Gust
kts
19/07:30pm 14.1 8.6 -5.6 25 7.3 SW 15 19 8 10 1018.5 1018.4 0.0
19/07:00pm 14.9 9.4 -5.5 24 7.6 SW 15 19 8 10 1018.0 1017.9 0.0
19/06:30pm 15.9 10.4 -5.2 23 8.1 SW 15 20 8 11 1017.6 1017.5 0.0
19/06:00pm 17.0 10.2 -4.8 22 8.5 SSW 22 30 12 16 1017.2 1017.1 0.0
19/05:30pm 17.8 11.9 -5.4 20 9.0 SW 17 28 9 15 1016.8 1016.7 0.0
19/05:00pm 18.5 12.0 -5.5 19 9.4 SW 20 32 11 17 1016.5 1016.4 0.0
19/04:30pm 18.5 11.5 -7.0 17 9.7 SW 22 32 12 17 1016.3 1016.2 0.0
19/04:00pm 19.2 13.0 -5.0 19 9.6 SSW 19 32 10 17 1016.2 1016.1 0.0
19/03:30pm 19.1 12.9 -5.0 19 9.6 SW 19 30 10 16 1016.3 1016.2 0.0
19/03:00pm 18.9 12.8 -3.9 21 9.2 SSW 19 32 10 17 1016.4 1016.3 0.0
19/02:30pm 18.7 12.5 -4.7 20 9.3 SSW 19 30 10 16 1016.4 1016.3 0.0
19/02:00pm 17.9 11.7 -3.5 23 8.7 SSW 20 35 11 19 1016.6 1016.5 0.0
19/01:30pm 17.8 11.1 -4.2 22 8.8 SSW 22 33 12 18 1017.0 1016.9 0.0
19/01:00pm 17.5 11.4 -2.7 25 8.3 SSW 20 35 11 19 1017.3 1017.2 0.0
19/12:30pm 17.2 11.2 -1.9 27 7.9 SW 20 33 11 18 1017.7 1017.6 0.0
19/12:00pm 16.0 9.5 -2.5 28 7.5 SSW 22 37 12 20 1018.1 1018.0 0.0
19/11:30am 16.1 9.0 -1.5 30 7.3 SSW 26 37 14 20 1018.3 1018.2 0.0
19/11:00am 16.0 9.6 -1.5 30 7.2 S 22 32 12 17 1018.5 1018.4 0.0
19/10:30am 15.4 8.7 -0.8 33 6.8 SSW 24 32 13 17 1018.7 1018.6 0.0
19/10:00am 14.4 7.0 -0.8 35 6.3 SSW 28 39 15 21 1018.7 1018.6 0.0
19/09:30am 13.6 5.9 -0.4 38 5.8 S 30 43 16 23 1018.5 1018.4 0.0
19/09:00am 13.2 6.4 0.9 43 5.2 SSW 26 39 14 21 1018.4 1018.3 0.0
19/08:30am 12.6 5.9 1.6 47 4.7 SSW 26 35 14 19 1018.1 1018.0 0.0
19/08:00am 11.7 5.0 1.4 49 4.4 SSW 26 35 14 19 1017.8 1017.7 0.0
19/07:30am 10.8 4.3 0.5 49 4.2 SSW 24 33 13 18 1017.5 1017.4 0.0
19/07:00am 9.8 4.6 -0.1 50 4.0 SSW 17 24 9 13 1016.8 1016.7 0.0
19/06:30am 9.4 3.8 0.1 52 3.7 SSW 19 24 10 13 1016.4 1016.3 0.0
19/06:00am 9.4 4.7 0.8 55 3.5 SW 15 20 8 11 1016.3 1016.2 0.0
19/05:30am 10.1 5.2 1.7 56 3.5 SSW 17 20 9 11 1015.9 1015.8 0.0
19/05:00am 10.9 5.1 2.5 56 3.6 SSW 22 32 12 17 1015.4 1015.2 0.0
19/04:30am 11.5 5.1 3.3 57 3.6 SSW 26 41 14 22 1015.0 1014.8 0.0
19/04:00am 11.8 5.5 3.6 57 3.7 SSW 26 37 14 20 1014.8 1014.6 0.0
19/03:30am 12.2 5.5 3.7 56 3.8 SSW 28 41 15 22 1014.4 1014.2 0.0
19/03:00am 12.6 6.3 3.8 55 4.0 SSW 26 37 14 20 1014.2 1014.0 0.0
19/02:30am 13.1 6.4 3.7 53 4.2 SSW 28 41 15 22 1014.2 1014.0 0.0
19/02:00am 13.8 6.3 3.6 50 4.6 SSW 32 43 17 23 1014.3 1014.1 0.0
19/01:30am 14.3 7.2 3.5 48 4.9 SW 30 43 16 23 1014.0 1013.8 0.0
19/01:00am 15.1 7.4 3.3 45 5.4 SSW 33 48 18 26 1013.7 1013.5 0.0
19/12:42am 15.8 8.1 3.6 44 5.6 SSW 33 54 18 29 1013.7 1013.5 0.0
19/12:30am 16.0 7.6 3.8 44 5.7 SSW 37 54 20 29 1013.3 1013.1 0.0
19/12:17am 16.3 8.0 4.0 44 5.7 SSW 37 56 20 30 1012.9 1012.7 0.0
19/12:00am 17.1 9.0 -0.1 31 7.4 SSW 32 46 17 25 1012.9 1012.7 0.0
 
Date/Time
EST
Temp
°C
App
Temp
°C
Dew
Point
°C
Rel
Hum
%
Delta-T
°C
Wind Press
QNH
hPa
Press
MSL
hPa
Rain since
9am
mm
Dir  Spd
km/h
Gust
km/h
Spd
kts
Gust
kts
18/11:36pm 17.2 10.9 -10.5 14 9.6 WSW 17 46 9 25 1012.3 1012.2 0.0
18/11:30pm 16.7 11.7 -12.8 12 9.7 W 9 11 5 6 1011.6 1011.5 0.0
18/11:00pm 17.9 13.6 -11.9 12 10.1 WNW 6 7 3 4 1011.5 1011.4 0.0
18/10:30pm 17.7 12.8 -12.0 12 10.1 NNW 9 11 5 6 1011.6 1011.5 0.0
18/10:00pm 18.3 13.0 -12.6 11 10.4 NNW 11 13 6 7 1011.8 1011.7 0.0
18/09:30pm 18.5 12.8 -12.5 11 10.5 NNW 13 13 7 7 1012.0 1011.9 0.0
18/09:00pm 18.5 13.2 -12.5 11 10.5 NNW 11 13 6 7 1011.8 1011.7 0.0
18/08:30pm 19.4 14.5 -11.8 11 10.8 NW 9 11 5 6 1011.8 1011.7 0.0
18/08:00pm 20.2 14.5 -12.3 10 11.3 WNW 13 17 7 9 1011.9 1011.8 0.0
18/07:30pm 20.0 14.7 -12.5 10 11.2 N 11 13 6 7 1011.5 1011.4 0.0
18/07:00pm 20.3 15.0 -12.3 10 11.3 NNW 11 11 6 6 1011.3 1011.2 0.0
18/06:30pm 22.1 17.2 -12.2 9 12.2 NW 9 13 5 7 1011.0 1010.9 0.0
18/06:00pm 23.9 17.8 -12.3 8 13.1 NW 15 19 8 10 1010.9 1010.8 0.0
18/05:30pm 25.7 18.4 -11.0 8 13.9 NW 22 30 12 16 1011.0 1010.9 0.0
18/05:00pm 26.5 19.6 -10.4 8 14.3 NW 20 28 11 15 1011.0 1010.9 0.0
18/04:30pm 26.7 19.5 -10.2 8 14.3 NW 22 30 12 16 1010.7 1010.6 0.0
18/04:00pm 27.1 20.3 -9.9 8 14.5 NW 20 28 11 15 1010.9 1010.8 0.0
18/03:30pm 26.7 19.1 -10.2 8 14.3 NW 24 35 13 19 1011.2 1011.1 0.0
18/03:00pm 27.2 20.5 -9.9 8 14.6 NW 19 32 10 17 1011.5 1011.4 0.0
18/02:30pm 27.1 19.5 -9.9 8 14.5 NW 24 35 13 19 1012.1 1012.0 0.0
18/02:00pm 26.4 18.7 -10.5 8 14.2 NW 24 33 13 18 1012.7 1012.6 0.0
18/01:35pm 26.6 19.0 -10.3 8 14.3 NNW 24 54 13 29 1013.2 1013.0 0.0
18/01:30pm 26.2 18.9 -10.6 8 14.1 N 22 33 12 18 1013.2 1013.0 0.0
18/01:00pm 25.4 18.8 -9.7 9 13.6 NNW 19 30 10 16 1013.8 1013.6 0.0
18/12:30pm 25.1 18.2 -10.0 9 13.5 NW 20 35 11 19 1014.5 1014.3 0.0
18/12:00pm 24.4 16.7 -10.5 9 13.2 NW 24 35 13 19 1015.1 1014.9 0.0
18/11:30am 24.0 17.3 -8.2 11 12.6 NW 20 32 11 17 1015.6 1015.5 0.0
18/11:00am 23.0 15.5 -9.0 11 12.2 NNW 24 35 13 19 1015.9 1015.8 0.0
18/10:30am 22.4 15.7 -8.4 12 11.8 N 20 30 11 16 1016.2 1016.1 0.0
18/10:00am 21.3 14.1 -9.2 12 11.4 N 22 32 12 17 1016.5 1016.4 0.0
18/09:30am 20.1 12.9 -9.1 13 10.8 N 22 32 12 17 1016.5 1016.4 0.0
18/09:00am 19.1 12.3 -9.0 14 10.3 N 20 30 11 16 1016.6 1016.5 0.0
18/08:30am 17.6 11.0 -9.3 15 9.6 NNE 19 26 10 14 1016.7 1016.6 0.0
18/08:00am 15.3 9.4 -9.6 17 8.6 NNE 15 22 8 12 1016.5 1016.4 0.0
18/07:30am 11.1 5.6 -9.2 23 6.7 NNE 13 15 7 8 1016.4 1016.3 0.0
18/07:00am 6.6 0.7 -10.6 28 5.1 NNE 15 17 8 9 1016.5 1016.4 0.0
18/06:30am 3.3 -2.4 -13.0 29 4.6 NE 13 15 7 8 1016.5 1016.4 0.0
18/06:00am 4.1 -2.0 -12.3 29 4.8 NE 15 17 8 9 1016.4 1016.3 0.0
18/05:30am 4.4 -0.9 -12.5 28 4.9 N 11 15 6 8 1016.5 1016.4 0.0
18/05:00am 5.5 0.0 -10.3 31 4.7 N 13 15 7 8 1016.4 1016.3 0.0
18/04:30am 6.8 1.2 -11.3 26 5.3 N 13 13 7 7 1016.3 1016.2 0.0
18/04:00am 9.0 3.2 -9.0 27 5.8 N 15 15 8 8 1016.2 1016.1 0.0
18/03:30am 8.2 2.7 -9.2 28 5.5 N 13 15 7 8 1016.1 1016.0 0.0
18/03:00am 8.7 3.2 -9.7 26 5.8 NNE 13 15 7 8 1016.1 1016.0 0.0
18/02:30am 9.9 4.1 -9.2 25 6.2 N 15 17 8 9 1016.4 1016.3 0.0
18/02:00am 9.6 3.7 -9.4 25 6.1 N 15 15 8 8 1016.8 1016.7 0.0
18/01:30am 10.0 4.2 -9.1 25 6.2 N 15 15 8 8 1016.9 1016.8 0.0
18/01:00am 10.2 4.4 -8.9 25 6.3 N 15 17 8 9 1017.1 1017.0 0.0
18/12:30am 10.6 4.8 -9.1 24 6.5 N 15 17 8 9 1017.2 1017.1 0.0
18/12:00am 10.1 4.7 -9.0 25 6.2 NNE 13 15 7 8 1017.4 1017.3 0.0
 
Date/Time
EST
Temp
°C
App
Temp
°C
Dew
Point
°C
Rel
Hum
%
Delta-T
°C
Wind Press
QNH
hPa
Press
MSL
hPa
Rain since
9am
mm
Dir  Spd
km/h
Gust
km/h
Spd
kts
Gust
kts
17/11:30pm 9.4 3.9 -10.1 24 6.1 NNE 13 15 7 8 1017.7 1017.6 0.0
17/11:00pm 8.9 2.9 -11.1 23 6.1 NNE 15 17 8 9 1017.7 1017.6 0.0
17/10:30pm 8.5 2.5 -12.0 22 6.1 NE 15 17 8 9 1018.0 1017.9 0.0
17/10:00pm 9.7 4.1 -11.5 21 6.5 ENE 13 17 7 9 1018.2 1018.1 0.0
17/09:30pm 10.3 5.1 -10.5 22 6.6 NNE 11 13 6 7 1018.2 1018.1 0.0
17/09:00pm 11.1 5.5 -10.4 21 6.9 NNE 13 13 7 7 1018.3 1018.2 0.0
17/08:30pm 11.4 6.2 -10.1 21 7.0 NNE 11 13 6 7 1018.3 1018.2 0.0
17/08:00pm 12.9 7.0 -10.1 19 7.6 NNE 15 15 8 8 1018.2 1018.1 0.0
17/07:30pm 13.6 8.4 -10.2 18 7.9 NNE 11 13 6 7 1018.4 1018.3 0.0
17/07:00pm 14.9 9.7 -10.7 16 8.6 NNE 11 11 6 6 1018.4 1018.3 0.0
17/06:30pm 16.9 12.1 -9.9 15 9.4 NNE 9 11 5 6 1018.3 1018.2 0.0
17/06:00pm 19.1 14.0 -9.9 13 10.4 N 11 15 6 8 1018.1 1018.0 0.0
17/05:30pm 20.1 15.0 -9.1 13 10.8 N 11 17 6 9 1017.9 1017.8 0.0
17/05:00pm 21.0 15.6 -8.4 13 11.1 NNW 13 19 7 10 1017.8 1017.7 0.0
17/04:30pm 20.9 16.3 -8.5 13 11.1 N 9 19 5 10 1017.9 1017.8 0.0
17/04:00pm 21.0 16.0 -8.4 13 11.1 NNE 11 22 6 12 1018.1 1018.0 0.0
17/03:30pm 21.0 16.4 -8.4 13 11.1 NNW 9 20 5 11 1018.4 1018.3 0.0
17/03:00pm 20.1 14.6 -9.1 13 10.8 NE 13 20 7 11 1018.9 1018.8 0.0
17/02:30pm 20.4 15.0 -8.0 14 10.8 N 13 22 7 12 1019.3 1019.2 0.0
17/02:00pm 19.8 14.0 -8.4 14 10.5 NNE 15 24 8 13 1019.7 1019.6 0.0
17/01:30pm 19.4 14.4 -8.7 14 10.4 N 11 22 6 12 1020.3 1020.2 0.0
17/01:00pm 18.8 12.7 -8.3 15 10.0 NNE 17 26 9 14 1021.0 1020.9 0.0
17/12:30pm 18.3 12.6 -7.9 16 9.7 NNE 15 26 8 14 1021.6 1021.5 0.0
17/12:00pm 18.0 12.3 -7.4 17 9.5 ENE 15 24 8 13 1022.2 1022.1 0.0
17/11:30am 18.3 12.4 -5.7 19 9.3 NE 17 24 9 13 1022.8 1022.7 0.0
17/11:00am 17.0 11.1 -6.1 20 8.7 NE 17 26 9 14 1023.4 1023.3 0.0
17/10:30am 16.5 10.2 -5.9 21 8.5 NE 19 24 10 13 1023.6 1023.5 0.0
17/10:00am 15.6 9.7 -6.0 22 8.0 NE 17 24 9 13 1024.1 1023.9 0.0
17/09:30am 15.1 8.8 -5.9 23 7.8 NE 19 26 10 14 1024.4 1024.2 0.0
17/09:00am 13.6 8.1 -5.5 26 7.0 NE 15 19 8 10 1024.5 1024.4 0.0
17/08:30am 11.6 6.0 -6.3 28 6.4 ENE 15 19 8 10 1024.4 1024.2 0.0
17/08:00am 10.5 5.7 -5.9 31 5.8 NE 11 17 6 9 1024.3 1024.1 0.0
17/07:30am 8.7 4.7 -5.9 35 5.0 NE 7 11 4 6 1024.1 1023.9 0.0
17/07:00am 3.9 -0.5 -5.8 49 3.1 ENE 9 11 5 6 1023.7 1023.6 0.0
17/06:30am -0.6 -4.9 -9.0 53 2.4 E 7 9 4 5 1023.5 1023.4 0.0
17/06:00am -0.6 -4.9 -11.9 42 2.9 SE 6 7 3 4 1023.3 1023.2 0.0
17/05:30am -0.7 -4.9 -9.8 50 2.5 SSE 6 6 3 3 1022.9 1022.8 0.0
17/05:00am -0.3 -4.4 -9.4 50 2.5 SSE 6 6 3 3 1022.8 1022.7 0.0
17/04:30am -0.3 -4.7 -10.8 45 2.8 S 7 9 4 5 1022.7 1022.6 0.0
17/04:00am 0.0 -4.5 -12.0 40 3.2 SSW 7 7 4 4 1022.7 1022.6 0.0
17/03:30am 1.2 -2.9 -9.4 45 3.1 SSW 6 7 3 4 1022.7 1022.6 0.0
17/03:00am 0.8 -3.5 -11.2 40 3.3 SSW 6 7 3 4 1022.8 1022.7 0.0
17/02:30am 1.3 -3.5 -10.8 40 3.4 SSW 9 9 5 5 1023.0 1022.9 0.0
17/02:00am 1.8 -3.0 -11.0 38 3.6 SSW 9 11 5 6 1023.3 1023.2 0.0
17/01:30am 2.9 -1.6 -11.0 35 4.1 WSW 7 9 4 5 1023.7 1023.6 0.0
17/01:00am 4.4 -0.1 -6.8 44 3.5 SW 9 13 5 7 1024.0 1023.8 0.0
17/12:30am 2.3 -2.2 -11.6 35 3.9 SSE 7 7 4 4 1024.0 1023.8 0.0
17/12:00am 2.7 -1.7 -10.5 37 3.9 SSE 7 7 4 4 1024.0 1023.8 0.0
 
Date/Time
EST
Temp
°C
App
Temp
°C
Dew
Point
°C
Rel
Hum
%
Delta-T
°C
Wind Press
QNH
hPa
Press
MSL
hPa
Rain since
9am
mm
Dir  Spd
km/h
Gust
km/h
Spd
kts
Gust
kts
16/11:30pm 3.4 -0.9 -9.5 38 4.0 SSE 7 9 4 5 1024.2 1024.0 0.0
16/11:00pm 3.4 -1.5 -12.1 31 4.4 SSE 9 9 5 5 1024.3 1024.1 0.0
16/10:30pm 4.6 0.3 -9.2 36 4.1 S 7 7 4 4 1024.4 1024.2 0.0
16/10:00pm 5.9 1.4 -6.6 40 4.1 S 9 9 5 5 1024.6 1024.5 0.0
16/09:30pm 6.3 1.8 -6.6 39 4.2 S 9 9 5 5 1024.6 1024.5 0.0
16/09:00pm 7.3 2.8 -7.1 35 4.7 SSE 9 9 5 5 1024.5 1024.4 0.0
16/08:30pm 8.3 3.3 -7.8 31 5.3 SSW 11 13 6 7 1024.2 1024.0 0.0
16/08:00pm 9.7 5.2 -6.6 31 5.6 SSW 9 11 5 6 1024.1 1023.9 0.0

Other Formats:

Comma delimited format used in spreadsheet applications
http://www.bom.gov.au/fwo/IDN60801/IDN60801.95695.axf

JavaScript Object Notation format (JSON) in row-major order
http://www.bom.gov.au/fwo/IDN60801/IDN60801.95695.json